ウラジオストク の空港の天気 - METARとTAF

ウラジオストク空港 ( UHWW / VVO ) - ロシア ウラジオストク
飛行場実況気象(Metar)
観測時間03/23 06:30 VLAT (03/22 20:30 UTC)
風向・風速北 2m/s
視程10km以上
天気現象
なし
気温-12℃
湿度85%
気圧1016hPa
METARUHWW 222030Z 01002MPS 9999 NSC M12/M14 Q1016 R25L/0///70 NOSIG RMK QFE761
過去の天気等 Google飛行場航空写真 Wunderground天気予報

過去48時間のMETAR

飛行場予報(TAF)
発表時間: 3/23 06:00 VLAT (3/22 20:00 UTC)
予報対象時間: 23日7時 VLAT ~ 24日7時 VLAT
風向・風速南 3m/s
視程10km以上
全天の4割程度の雲 雲底高度 910m
23日12時 VLAT から
風向・風速北西 3m/s
視程5000m
天気現象弱いしゅう雪
全天の8割程度の積乱雲 雲底高度 610m
23日12時 VLAT ~ 23日22時 VLAT に一時的に
風向・風速北北西 7m/s 瞬間風速 12m/s
視程3100m
天気現象弱いしゅう雪
全天の8割程度の雲 雲底高度 340m
全天の8割程度の積乱雲 雲底高度 460m
TAF UHWW 222000Z 2221/2321 18003MPS 9999 SCT030
FM230200 32003MPS 5000 -SHSN BKN020CB
TEMPO 2302/2312 34007G12MPS 3100 -SHSN BKN011 BKN015CB